Time;durP1;ratioP1;P1;durP2;ratioP2;P2;SDS_P1;SDS_P2;PMS_P1;PMS_P2;Temp;Humidity;BMP_temperature;BMP_pressure;BME280_temperature;BME280_humidity;BME280_pressure;Samples;Min_cycle;Max_cycle;Signal;HPM_P1;HPM_P2
2023/06/22 00:00:54;;;;;;;1.90;1.80;;;;;;;19.19;69.12;101796.63;5051882;28;19920;-82
2023/06/22 00:03:21;;;;;;;1.50;1.40;;;;;;;19.17;69.11;101801.09;5049203;28;20040;-81
2023/06/22 00:05:48;;;;;;;1.90;1.80;;;;;;;19.14;69.54;101796.78;5051699;28;20033;-82
2023/06/22 00:08:14;;;;;;;1.60;1.50;;;;;;;19.10;69.59;101792.53;5051627;28;20100;-82
2023/06/22 00:10:39;;;;;;;1.70;1.60;;;;;;;19.08;69.76;101785.63;5051377;28;20392;-82
2023/06/22 00:13:06;;;;;;;1.57;1.47;;;;;;;19.05;69.75;101788.38;5051719;28;20033;-82
2023/06/22 00:15:32;;;;;;;1.70;1.60;;;;;;;18.99;69.89;101789.44;5051411;28;20366;-82
2023/06/22 00:17:58;;;;;;;1.77;1.67;;;;;;;18.94;70.08;101786.97;5052286;28;20031;-82
2023/06/22 00:20:27;;;;;;;2.10;1.90;;;;;;;18.93;70.28;101795.78;5051903;28;20025;-82
2023/06/22 00:22:53;;;;;;;1.60;1.50;;;;;;;18.85;70.33;101783.81;5051168;28;20424;-82
2023/06/22 00:25:19;;;;;;;1.75;1.63;;;;;;;18.79;70.46;101793.63;5051361;28;20052;-82
2023/06/22 00:27:44;;;;;;;1.87;1.77;;;;;;;18.75;70.56;101791.16;5051973;28;20433;-82
2023/06/22 00:30:10;;;;;;;1.67;1.57;;;;;;;18.70;70.63;101788.69;5050282;28;20135;-82
2023/06/22 00:32:35;;;;;;;2.50;2.00;;;;;;;18.65;71.22;101786.22;5051183;28;20021;-82
2023/06/22 00:35:00;;;;;;;2.30;1.70;;;;;;;18.65;71.12;101795.84;5053408;28;20029;-82
2023/06/22 00:37:29;;;;;;;1.87;1.77;;;;;;;18.61;71.25;101784.59;5054323;28;20028;-82
2023/06/22 00:39:55;;;;;;;1.77;1.67;;;;;;;18.59;71.29;101796.06;5055230;28;20466;-82
2023/06/22 00:42:20;;;;;;;2.00;1.80;;;;;;;18.53;71.48;101787.47;5055203;28;20025;-82
2023/06/22 00:44:45;;;;;;;2.40;1.90;;;;;;;18.51;71.35;101781.44;5054734;28;20021;-82
2023/06/22 00:47:14;;;;;;;2.10;1.90;;;;;;;18.48;71.83;101775.41;5055083;28;20083;-82
2023/06/22 00:49:39;;;;;;;1.50;1.40;;;;;;;18.42;71.79;101778.25;5054907;28;20025;-82
2023/06/22 00:52:13;;;;;;;1.90;1.80;;;;;;;18.41;72.01;101779.16;5054228;28;20029;-81
2023/06/22 00:54:40;;;;;;;2.00;1.90;;;;;;;18.36;72.08;101782.78;5055076;28;20559;-82
2023/06/22 00:57:05;;;;;;;1.80;1.70;;;;;;;18.33;72.28;101782.91;5054850;28;20516;-81
2023/06/22 00:59:32;;;;;;;1.87;1.73;;;;;;;18.29;72.52;101783.91;5052100;28;20028;-81
2023/06/22 01:01:57;;;;;;;1.92;1.83;;;;;;;18.24;73.07;101771.81;5054493;28;20124;-82
2023/06/22 01:04:33;;;;;;;1.80;1.70;;;;;;;18.23;72.96;101780.59;5054343;28;20108;-82
2023/06/22 01:07:12;;;;;;;1.73;1.63;;;;;;;18.21;72.77;101776.25;5054207;28;20033;-82
2023/06/22 01:09:47;;;;;;;1.70;1.60;;;;;;;18.15;73.02;101765.97;5055099;28;20095;-82
2023/06/22 01:12:16;;;;;;;1.45;1.45;;;;;;;18.12;73.07;101765.22;5054031;28;20021;-82
2023/06/22 01:14:54;;;;;;;1.90;1.80;;;;;;;18.10;73.16;101767.03;5054593;28;20197;-82
2023/06/22 01:17:20;;;;;;;2.28;2.08;;;;;;;18.10;73.22;101764.41;5054522;28;20388;-82
2023/06/22 01:19:47;;;;;;;2.27;1.80;;;;;;;18.10;73.16;101773.13;5052121;28;20037;-82
2023/06/22 01:22:19;;;;;;;2.08;1.88;;;;;;;18.09;73.10;101775.81;5054305;28;20021;-82
2023/06/22 01:25:00;;;;;;;2.20;2.00;;;;;;;18.06;73.12;101769.75;5054140;28;20045;-82
2023/06/22 01:27:45;;;;;;;2.20;2.00;;;;;;;18.05;73.59;101775.06;5053884;28;20032;-82
2023/06/22 01:30:12;;;;;;;1.85;1.75;;;;;;;18.03;73.45;101780.34;5044206;28;20021;-81
2023/06/22 01:32:40;;;;;;;2.55;1.90;;;;;;;17.99;73.58;101769.97;5034297;28;20025;-82
2023/06/22 01:35:08;;;;;;;2.08;1.90;;;;;;;17.99;73.79;101773.47;5033392;28;20025;-82
2023/06/22 01:37:35;;;;;;;2.22;2.03;;;;;;;17.99;73.88;101783.13;5034317;28;20033;-81
2023/06/22 01:40:04;;;;;;;1.85;1.75;;;;;;;17.97;73.72;101771.78;5033388;28;20048;-81
2023/06/22 01:42:30;;;;;;;2.20;2.00;;;;;;;17.96;73.90;101775.31;5033807;28;20474;-82
2023/06/22 01:44:56;;;;;;;2.23;2.00;;;;;;;17.96;74.04;101780.56;5034454;28;20113;-82
2023/06/22 01:47:23;;;;;;;2.35;2.15;;;;;;;17.96;74.03;101768.28;5032228;28;20099;-82
2023/06/22 01:49:52;;;;;;;2.58;2.20;;;;;;;17.95;74.02;101760.47;5034028;28;20028;-81
2023/06/22 01:52:18;;;;;;;2.30;2.10;;;;;;;17.96;74.25;101760.41;5033659;28;20441;-82
2023/06/22 01:54:44;;;;;;;2.10;1.90;;;;;;;17.93;74.62;101755.25;5033317;28;20113;-82
2023/06/22 01:57:10;;;;;;;2.17;1.97;;;;;;;17.94;74.43;101758.75;5033569;28;20116;-82
2023/06/22 02:00:04;;;;;;;2.60;2.30;;;;;;;17.95;74.54;101773.59;5034789;28;20067;-82
2023/06/22 02:02:48;;;;;;;2.28;2.08;;;;;;;17.92;74.99;101764.03;5032705;28;20457;-82
2023/06/22 02:05:17;;;;;;;2.90;2.08;;;;;;;17.92;74.70;101758.78;5033933;28;20060;-82
2023/06/22 02:08:02;;;;;;;2.33;2.13;;;;;;;17.90;74.75;101761.47;5034012;28;20033;-82
2023/06/22 02:10:28;;;;;;;2.67;2.08;;;;;;;17.87;74.82;101752.81;5030236;28;20033;-82
2023/06/22 02:12:55;;;;;;;2.17;1.98;;;;;;;17.84;74.81;101748.53;5032920;28;20060;-82
2023/06/22 02:15:21;;;;;;;2.40;2.20;;;;;;;17.84;75.20;101753.78;5032245;28;20508;-81
2023/06/22 02:17:47;;;;;;;3.13;2.47;;;;;;;17.81;75.27;101751.25;5033459;28;20029;-82
2023/06/22 02:20:14;;;;;;;2.20;2.00;;;;;;;17.80;75.32;101760.03;5043054;28;20049;-81
2023/06/22 02:22:39;;;;;;;2.40;2.20;;;;;;;17.75;75.22;101762.81;5052436;28;20059;-81
2023/06/22 02:25:05;;;;;;;2.33;2.13;;;;;;;17.73;75.45;101761.16;5053020;28;20157;-81
2023/06/22 02:27:30;;;;;;;2.87;2.40;;;;;;;17.68;75.68;101749.91;5052679;28;20037;-81
2023/06/22 02:29:56;;;;;;;2.60;2.40;;;;;;;17.67;75.90;101756.94;5051355;28;20473;-81
2023/06/22 02:32:22;;;;;;;3.30;2.45;;;;;;;17.68;75.83;101758.63;5052935;28;20151;-81
2023/06/22 02:34:47;;;;;;;3.30;2.47;;;;;;;17.67;76.11;101749.06;5053277;28;20032;-81
2023/06/22 02:37:14;;;;;;;2.87;2.57;;;;;;;17.63;75.80;101736.06;5051810;28;20029;-81
2023/06/22 02:39:40;;;;;;;2.95;2.47;;;;;;;17.61;76.08;101733.47;5053249;28;20354;-81
2023/06/22 02:42:05;;;;;;;2.47;2.20;;;;;;;17.62;76.42;101735.22;5052782;28;20021;-81
2023/06/22 02:44:31;;;;;;;3.37;2.30;;;;;;;17.60;76.57;101737.00;5052153;28;20025;-81
2023/06/22 02:46:56;;;;;;;2.40;2.20;;;;;;;17.61;76.46;101738.72;5052486;28;20031;-82
2023/06/22 02:49:24;;;;;;;2.90;2.47;;;;;;;17.60;76.66;101737.00;5052638;28;20025;-81
2023/06/22 02:51:50;;;;;;;2.65;2.38;;;;;;;17.58;76.68;101723.94;5052019;28;20025;-81
2023/06/22 02:54:16;;;;;;;3.03;2.40;;;;;;;17.55;76.65;101731.06;5052274;28;20021;-81
2023/06/22 02:56:43;;;;;;;3.38;2.40;;;;;;;17.45;76.69;101731.31;5049920;28;20485;-81
2023/06/22 02:59:10;;;;;;;2.58;2.25;;;;;;;17.48;77.02;101734.75;5051097;28;20408;-82
2023/06/22 03:01:39;;;;;;;2.70;2.35;;;;;;;17.44;77.11;101732.25;5052894;28;20381;-82
2023/06/22 03:04:09;;;;;;;3.20;2.50;;;;;;;17.44;77.32;101726.13;5052376;28;20029;-82
2023/06/22 03:06:35;;;;;;;2.80;2.45;;;;;;;17.42;77.42;101731.44;5052258;28;20033;-81
2023/06/22 03:09:03;;;;;;;3.63;2.67;;;;;;;17.36;77.38;101721.09;5052735;28;20032;-81
2023/06/22 03:11:29;;;;;;;3.70;2.70;;;;;;;17.38;77.42;101711.41;5051494;28;20107;-81
2023/06/22 03:13:55;;;;;;;3.58;2.60;;;;;;;17.39;77.48;101720.16;5052508;28;20028;-82
2023/06/22 03:16:20;;;;;;;4.70;2.60;;;;;;;17.36;77.76;101713.22;5052171;28;20032;-81
2023/06/22 03:18:45;;;;;;;3.13;2.70;;;;;;;17.35;77.63;101719.38;5051948;28;20029;-81
2023/06/22 03:21:11;;;;;;;3.20;2.53;;;;;;;17.31;77.64;101709.91;5051936;28;20120;-82
2023/06/22 03:23:36;;;;;;;3.50;2.70;;;;;;;17.25;77.83;101697.81;5052095;28;20071;-81
2023/06/22 03:26:02;;;;;;;2.73;2.50;;;;;;;17.24;77.99;101701.34;5035956;28;20057;-82
2023/06/22 03:28:27;;;;;;;3.07;2.50;;;;;;;17.24;78.29;101697.84;5032041;28;20030;-81
2023/06/22 03:30:52;;;;;;;3.00;2.50;;;;;;;17.26;78.29;101704.78;5032253;28;20025;-81
2023/06/22 03:33:17;;;;;;;2.87;2.50;;;;;;;17.24;78.35;101705.72;5031525;28;20041;-81
2023/06/22 03:35:43;;;;;;;2.77;2.50;;;;;;;17.19;78.38;101698.00;5032534;28;20112;-81
2023/06/22 03:38:08;;;;;;;2.93;2.40;;;;;;;17.19;78.53;101700.59;5032139;28;20418;-82
2023/06/22 03:40:33;;;;;;;2.93;2.50;;;;;;;17.19;78.40;101703.22;5031388;28;20081;-82
2023/06/22 03:42:59;;;;;;;2.60;2.40;;;;;;;17.20;78.70;101699.72;5032480;28;20021;-81
2023/06/22 03:45:24;;;;;;;3.93;2.53;;;;;;;17.20;78.83;101691.84;5031879;28;20021;-81
2023/06/22 03:47:49;;;;;;;2.33;2.10;;;;;;;17.16;79.59;101691.97;5031410;28;20374;-82
2023/06/22 03:50:15;;;;;;;2.40;2.20;;;;;;;17.09;79.20;101680.81;5032037;28;20083;-81
2023/06/22 03:52:40;;;;;;;3.50;2.90;;;;;;;17.17;82.55;101702.41;5032287;28;20482;-81
2023/06/22 03:57:54;;;;;;;2.40;2.20;;;;;;;17.07;80.20;101674.75;5051700;28;20033;-81
2023/06/22 04:00:19;;;;;;;2.30;2.10;;;;;;;17.16;80.07;101689.34;5051903;28;20025;-82
2023/06/22 04:02:44;;;;;;;2.73;2.20;;;;;;;17.19;79.30;101682.25;5051423;28;20067;-81
2023/06/22 04:05:13;;;;;;;2.20;2.00;;;;;;;17.22;79.79;101683.94;5051679;28;20048;-81
2023/06/22 04:07:39;;;;;;;1.98;1.83;;;;;;;17.24;80.09;101687.34;5051138;28;20103;-81
2023/06/22 04:10:05;;;;;;;1.80;1.70;;;;;;;17.27;79.57;101682.91;5043877;28;20449;-81
2023/06/22 04:12:30;;;;;;;2.20;2.00;;;;;;;17.33;79.99;101679.22;5035284;28;20057;-82
2023/06/22 04:14:55;;;;;;;2.63;2.10;;;;;;;17.35;79.29;101677.41;5034847;28;20039;-81
2023/06/22 04:17:21;;;;;;;2.57;2.00;;;;;;;17.42;79.39;101681.56;5035373;28;20112;-81
2023/06/22 04:19:46;;;;;;;2.20;2.00;;;;;;;17.49;79.58;101679.63;5035756;28;20096;-82
2023/06/22 04:22:12;;;;;;;3.13;2.60;;;;;;;17.54;83.49;101680.31;5034815;28;20441;-81
2023/06/22 04:24:37;;;;;;;3.37;2.60;;;;;;;17.59;80.66;101688.03;5035226;28;20661;-81
2023/06/22 04:27:03;;;;;;;3.07;2.40;;;;;;;17.62;80.85;101695.84;5035787;28;20028;-81
2023/06/22 04:29:31;;;;;;;2.97;2.37;;;;;;;17.62;79.70;101690.59;5033910;28;20385;-82
2023/06/22 04:32:02;;;;;;;2.33;2.13;;;;;;;17.69;79.78;101693.88;5035675;28;20406;-82
2023/06/22 04:34:29;;;;;;;2.20;2.00;;;;;;;17.74;80.39;101700.69;5105895;22;20463;-82
2023/06/22 04:36:55;;;;;;;2.35;2.15;;;;;;;17.79;79.20;101695.31;5054574;28;20408;-82
2023/06/22 04:39:21;;;;;;;2.65;2.10;;;;;;;17.82;79.88;101689.09;5054847;28;20032;-81
2023/06/22 04:41:46;;;;;;;2.92;2.38;;;;;;;17.89;80.12;101699.34;5055592;28;20070;-81
2023/06/22 04:44:25;;;;;;;2.30;2.10;;;;;;;17.95;79.33;101703.53;5054152;28;20116;-81
2023/06/22 04:46:53;;;;;;;2.33;2.13;;;;;;;18.02;79.37;101697.19;5055412;28;20037;-81
2023/06/22 04:49:21;;;;;;;2.30;2.10;;;;;;;18.07;80.56;101694.41;5054921;28;20053;-81
2023/06/22 04:51:47;;;;;;;3.13;2.50;;;;;;;18.08;79.31;101693.50;5054461;28;20405;-80
2023/06/22 04:54:13;;;;;;;2.55;2.10;;;;;;;18.15;79.62;101700.28;5054815;28;20029;-81
2023/06/22 04:56:40;;;;;;;1.90;1.80;;;;;;;18.23;79.45;101700.03;5054368;28;20029;-81
2023/06/22 04:59:06;;;;;;;3.33;2.80;;;;;;;18.31;80.89;101703.25;5054081;28;20021;-81
2023/06/22 05:01:31;;;;;;;3.08;2.45;;;;;;;18.37;80.75;101702.19;5054628;28;20106;-81
2023/06/22 05:04:00;;;;;;;2.03;1.87;;;;;;;18.43;79.08;101701.13;5054160;28;20028;-80
2023/06/22 05:06:26;;;;;;;3.47;2.70;;;;;;;18.48;80.09;101700.03;5054750;28;20116;-81
2023/06/22 05:08:59;;;;;;;4.43;3.00;;;;;;;18.50;80.03;101694.72;5054703;28;20115;-81
2023/06/22 05:11:26;;;;;;;2.60;2.33;;;;;;;18.58;81.37;101687.41;5053477;28;20465;-81
2023/06/22 05:13:52;;;;;;;3.20;2.63;;;;;;;18.62;79.53;101683.78;5054647;28;20021;-81
2023/06/22 05:16:17;;;;;;;5.55;3.67;;;;;;;18.71;78.90;101687.84;5054255;28;20028;-81
2023/06/22 05:18:43;;;;;;;4.37;2.80;;;;;;;18.74;78.69;101700.03;5053676;28;20044;-81
2023/06/22 05:21:08;;;;;;;2.67;2.45;;;;;;;18.76;79.42;101698.19;5054118;28;20025;-81
2023/06/22 05:23:34;;;;;;;2.50;2.30;;;;;;;18.79;78.79;101695.47;5054316;28;20040;-81
2023/06/22 05:25:59;;;;;;;3.23;2.50;;;;;;;18.78;79.18;101704.28;5053041;28;20029;-80
2023/06/22 05:28:24;;;;;;;3.43;2.80;;;;;;;18.76;81.07;101700.84;5053206;28;20113;-81
2023/06/22 05:30:50;;;;;;;4.73;3.30;;;;;;;18.73;81.31;101701.81;5054451;28;20028;-82
2023/06/22 05:33:15;;;;;;;6.73;3.67;;;;;;;18.73;79.19;101703.56;5053264;28;20029;-82
2023/06/22 05:35:43;;;;;;;4.03;2.93;;;;;;;18.78;81.91;101699.00;5054206;28;20037;-82
2023/06/22 05:38:09;;;;;;;11.85;6.35;;;;;;;18.75;81.33;101696.47;5053701;28;20021;-82
2023/06/22 05:40:34;;;;;;;15.57;8.10;;;;;;;18.74;81.39;101693.00;5053338;28;20021;-81
2023/06/22 05:43:01;;;;;;;13.40;7.43;;;;;;;18.75;81.26;101686.81;5055232;28;20021;-81
2023/06/22 05:45:26;;;;;;;14.98;8.23;;;;;;;18.76;83.53;101690.31;5053776;28;20477;-81
2023/06/22 05:47:52;;;;;;;16.53;8.60;;;;;;;18.75;83.51;101686.81;5053385;28;20036;-81
2023/06/22 05:50:17;;;;;;;13.47;7.93;;;;;;;18.78;81.78;101680.59;5054251;28;20025;-81
2023/06/22 05:52:42;;;;;;;11.87;6.67;;;;;;;18.85;82.68;101682.09;5053821;28;20029;-81
2023/06/22 05:55:08;;;;;;;9.67;5.37;;;;;;;18.92;81.66;101688.81;5052428;28;20029;-81
2023/06/22 05:57:34;;;;;;;5.85;4.00;;;;;;;18.95;80.80;101685.28;5054348;28;20029;-82
2023/06/22 05:59:59;;;;;;;8.83;4.77;;;;;;;19.09;81.66;101692.66;5053694;28;20025;-81
2023/06/22 06:02:25;;;;;;;5.03;3.67;;;;;;;19.10;82.17;101678.56;5053216;28;20119;-81
2023/06/22 06:04:52;;;;;;;4.70;3.60;;;;;;;19.18;81.49;101676.50;5053967;28;20029;-81
2023/06/22 06:07:18;;;;;;;3.92;2.85;;;;;;;19.28;80.73;101693.66;5052867;28;20021;-80
2023/06/22 06:09:43;;;;;;;3.30;2.67;;;;;;;19.33;80.18;101682.94;5052632;28;20151;-81
2023/06/22 06:12:08;;;;;;;5.63;3.90;;;;;;;19.41;80.84;101682.66;5052983;28;20384;-82
2023/06/22 06:14:34;;;;;;;5.67;3.70;;;;;;;19.46;80.38;101680.72;5052213;28;20033;-81
2023/06/22 06:16:59;;;;;;;4.93;3.43;;;;;;;19.53;80.83;101674.28;5053380;28;20512;-81
2023/06/22 06:19:24;;;;;;;5.87;3.73;;;;;;;19.67;81.08;101671.06;5049294;28;20029;-80
2023/06/22 06:21:50;;;;;;;5.90;3.73;;;;;;;19.77;80.56;101671.56;5035404;28;20061;-80
2023/06/22 06:24:15;;;;;;;4.77;3.60;;;;;;;19.85;79.91;101673.91;5033133;28;20029;-80
2023/06/22 06:26:40;;;;;;;7.20;4.33;;;;;;;19.92;79.63;101674.53;5051831;28;20033;-84
2023/06/22 06:29:06;;;;;;;6.07;4.20;;;;;;;20.00;79.24;101683.81;5052198;28;20159;-88
2023/06/22 06:31:31;;;;;;;8.03;4.63;;;;;;;20.11;79.85;101682.50;5053358;28;20423;-84
2023/06/22 06:33:56;;;;;;;8.67;5.40;;;;;;;20.21;80.01;101687.31;5052514;28;20052;-83
2023/06/22 06:36:22;;;;;;;10.23;5.47;;;;;;;20.27;79.07;101680.94;5052452;28;20477;-83
2023/06/22 06:38:47;;;;;;;12.67;6.97;;;;;;;20.31;78.87;101676.38;5053128;28;20443;-83
2023/06/22 06:41:15;;;;;;;12.85;7.30;;;;;;;20.32;78.89;101676.31;5052780;28;20028;-83
2023/06/22 06:43:43;;;;;;;10.57;5.80;;;;;;;20.33;79.13;101678.03;5052397;28;20021;-83
2023/06/22 06:46:08;;;;;;;10.35;5.65;;;;;;;20.43;78.75;101677.66;5052921;28;20104;-83
2023/06/22 06:48:34;;;;;;;10.53;6.10;;;;;;;20.47;78.68;101668.66;5052992;28;20052;-83
2023/06/22 06:50:59;;;;;;;15.93;9.30;;;;;;;20.48;78.79;101679.16;5052193;28;20472;-83
2023/06/22 06:53:24;;;;;;;18.10;9.80;;;;;;;20.48;78.44;101681.78;5052994;28;20033;-84
2023/06/22 06:55:50;;;;;;;11.20;6.30;;;;;;;20.57;78.85;101685.78;5052224;28;20393;-84
2023/06/22 06:58:16;;;;;;;15.63;8.60;;;;;;;20.62;77.65;101680.31;5051815;28;20082;-83
2023/06/22 07:00:41;;;;;;;11.30;5.90;;;;;;;20.68;77.99;101682.69;5052984;28;20040;-83
2023/06/22 07:03:08;;;;;;;5.33;4.00;;;;;;;20.79;78.18;101675.19;5052216;28;20025;-83
2023/06/22 07:05:33;;;;;;;6.75;4.00;;;;;;;20.89;77.30;101666.84;5052211;28;20032;-83
2023/06/22 07:07:59;;;;;;;5.33;3.90;;;;;;;21.00;77.20;101679.56;5052299;28;20025;-84
2023/06/22 07:10:24;;;;;;;5.87;4.40;;;;;;;21.05;76.40;101670.50;5051435;28;20459;-83
2023/06/22 07:12:50;;;;;;;5.93;3.77;;;;;;;21.11;76.73;101672.84;5052884;28;20548;-83
2023/06/22 07:15:15;;;;;;;12.50;7.03;;;;;;;21.10;75.76;101673.75;5052199;28;20029;-83
2023/06/22 07:17:41;;;;;;;14.93;8.80;;;;;;;21.09;75.67;101669.41;5051686;28;20024;-82
2023/06/22 07:20:11;;;;;;;8.63;5.18;;;;;;;21.17;75.93;101668.22;5052332;28;20013;-82
2023/06/22 07:22:42;;;;;;;16.27;9.30;;;;;;;21.12;75.27;101664.00;5052806;28;20037;-82
2023/06/22 07:25:13;;;;;;;17.52;10.45;;;;;;;21.07;75.37;101665.97;5050978;28;20075;-82
2023/06/22 07:27:43;;;;;;;13.38;7.45;;;;;;;21.11;75.77;101662.28;5053248;28;20025;-94
2023/06/22 07:30:10;;;;;;;8.02;4.60;;;;;;;21.18;75.07;101667.25;5053147;28;20036;-86
2023/06/22 07:32:40;;;;;;;4.90;3.40;;;;;;;21.21;75.23;101665.34;5051779;28;20457;-83
2023/06/22 07:35:06;;;;;;;6.38;4.20;;;;;;;21.28;74.78;101665.88;5051608;28;20037;-85
2023/06/22 07:37:33;;;;;;;19.13;10.90;;;;;;;21.16;73.36;101669.97;5052550;28;20086;-85
2023/06/22 07:39:58;;;;;;;13.10;7.40;;;;;;;21.13;74.36;101657.78;5051734;28;20029;-85
2023/06/22 07:42:25;;;;;;;8.27;5.47;;;;;;;21.12;74.48;101649.94;5052046;28;20522;-84
2023/06/22 07:44:50;;;;;;;12.25;6.82;;;;;;;21.13;75.12;101652.50;5053462;28;20014;-85
2023/06/22 07:47:17;;;;;;;10.63;6.05;;;;;;;21.11;74.46;101651.72;5055377;28;20048;-86
2023/06/22 07:49:43;;;;;;;7.35;4.72;;;;;;;21.12;76.90;101634.97;5056569;28;20021;-89
2023/06/22 07:52:08;;;;;;;13.63;7.50;;;;;;;21.06;77.66;101637.03;5056155;28;20033;-87
2023/06/22 07:54:35;;;;;;;9.40;5.20;;;;;;;21.04;78.57;101623.03;5047861;28;20089;-87
2023/06/22 07:57:00;;;;;;;13.95;7.60;;;;;;;20.97;79.42;101625.13;5052463;28;20025;-88
2023/06/22 07:59:25;;;;;;;9.60;5.50;;;;;;;20.98;77.83;101618.91;5043445;28;20022;-87
2023/06/22 08:01:52;;;;;;;;;;;;;;;21.09;78.20;101613.97;5036219;28;20152;-87
2023/06/22 08:04:17;;;;;;;;;;;;;;;21.22;78.63;101613.41;5036024;28;20015;-87
2023/06/22 08:06:43;;;;;;;4.07;3.10;;;;;;;21.39;79.04;101604.66;5035507;28;19920;-85
2023/06/22 08:09:08;;;;;;;2.90;2.58;;;;;;;21.56;79.66;101596.75;5037962;28;20079;-87
2023/06/22 08:11:34;;;;;;;2.50;2.30;;;;;;;21.73;79.44;101589.81;5054509;28;20037;-79
2023/06/22 08:13:59;;;;;;;3.53;3.00;;;;;;;21.85;78.53;101585.69;5054779;28;20094;-81
2023/06/22 08:16:25;;;;;;;3.93;3.03;;;;;;;21.93;78.85;101578.22;5056094;28;20029;-82
2023/06/22 08:18:50;;;;;;;2.67;2.33;;;;;;;22.02;77.87;101576.88;5055812;28;20358;-84
2023/06/22 08:21:16;;;;;;;3.73;2.93;;;;;;;22.08;76.97;101581.00;5055011;28;20105;-85
2023/06/22 08:23:42;;;;;;;6.32;4.53;;;;;;;22.06;74.50;101571.38;5055870;28;20033;-86
2023/06/22 08:26:07;;;;;;;9.23;5.53;;;;;;;22.04;74.61;101570.59;5055137;28;20036;-85
2023/06/22 08:28:32;;;;;;;19.27;11.23;;;;;;;21.83;70.06;101575.19;5054337;28;20073;-86
2023/06/22 08:30:59;;;;;;;14.30;8.63;;;;;;;21.84;72.43;101576.06;5055649;28;20364;-86
2023/06/22 08:33:28;;;;;;;14.82;8.27;;;;;;;21.84;73.28;101570.78;5055033;28;20102;-84
2023/06/22 08:35:55;;;;;;;13.20;7.93;;;;;;;21.88;71.50;101573.19;5055051;28;20040;-86
2023/06/22 08:38:20;;;;;;;10.50;6.07;;;;;;;21.96;72.80;101572.75;5054940;28;20025;-86
2023/06/22 08:40:46;;;;;;;6.00;4.30;;;;;;;22.04;73.59;101577.66;5055496;28;20036;-87
2023/06/22 08:43:11;;;;;;;13.20;6.70;;;;;;;22.09;72.54;101575.66;5054631;28;20035;-81
2023/06/22 08:45:36;;;;;;;9.03;4.90;;;;;;;22.13;72.55;101578.97;5055349;28;20025;-82
2023/06/22 08:48:02;;;;;;;8.67;5.73;;;;;;;22.13;70.62;101576.34;5055648;28;20158;-86
2023/06/22 08:50:27;;;;;;;7.30;4.60;;;;;;;22.13;71.47;101571.88;5054239;28;20083;-85
2023/06/22 08:52:53;;;;;;;4.83;3.47;;;;;;;22.17;72.04;101570.81;5055338;28;20591;-85
2023/06/22 08:55:18;;;;;;;4.03;3.10;;;;;;;22.26;71.22;101568.59;5053828;28;20473;-84
2023/06/22 08:57:44;;;;;;;4.73;3.00;;;;;;;22.21;70.84;101569.72;5054690;28;20025;-85
2023/06/22 09:00:20;;;;;;;5.20;3.50;;;;;;;22.25;69.55;101569.53;5055348;28;20021;-85
2023/06/22 09:02:46;;;;;;;6.47;4.38;;;;;;;22.23;70.18;101559.03;5055731;28;20025;-85
2023/06/22 09:05:12;;;;;;;6.85;4.10;;;;;;;22.21;68.17;101564.44;5040245;28;20504;-86
2023/06/22 09:07:37;;;;;;;7.30;4.57;;;;;;;22.20;68.71;101553.91;5054675;28;20103;-87
2023/06/22 09:10:04;;;;;;;5.27;3.67;;;;;;;22.22;68.68;101562.63;5054194;28;20028;-86
2023/06/22 09:12:30;;;;;;;6.57;3.92;;;;;;;22.24;68.27;101547.53;5054822;28;20025;-86
2023/06/22 09:14:56;;;;;;;8.10;4.07;;;;;;;22.28;69.05;101549.09;5054900;28;20380;-86
2023/06/22 09:17:22;;;;;;;6.53;3.83;;;;;;;22.28;67.49;101545.56;5052578;28;20374;-86
2023/06/22 09:19:48;;;;;;;8.30;4.65;;;;;;;22.29;66.94;101545.47;5034725;28;20137;-86
2023/06/22 09:22:14;;;;;;;6.25;4.20;;;;;;;22.32;67.73;101536.56;5035684;28;20481;-86
2023/06/22 09:24:39;;;;;;;6.57;3.65;;;;;;;22.33;67.93;101535.63;5054047;28;20036;-86
2023/06/22 09:27:05;;;;;;;5.23;3.50;;;;;;;22.33;67.37;101535.63;5039831;28;20049;-86
2023/06/22 09:29:33;;;;;;;5.45;3.60;;;;;;;22.37;67.29;101545.06;5034921;28;20035;-85
2023/06/22 09:31:58;;;;;;;3.30;2.70;;;;;;;22.41;67.42;101549.31;5032567;28;20028;-80
2023/06/22 09:34:23;;;;;;;3.93;2.57;;;;;;;22.43;66.70;101547.44;5035320;28;20037;-84
2023/06/22 09:36:49;;;;;;;2.77;2.23;;;;;;;22.47;67.44;101540.19;5053883;28;20436;-86
2023/06/22 09:39:14;;;;;;;2.57;2.37;;;;;;;22.51;66.88;101544.38;5053516;28;20041;-86
2023/06/22 09:41:40;;;;;;;4.93;3.60;;;;;;;22.50;65.31;101548.78;5054283;28;20048;-86
2023/06/22 09:44:11;;;;;;;4.10;3.10;;;;;;;22.51;66.36;101539.09;5054400;28;20021;-85
2023/06/22 09:46:36;;;;;;;5.95;4.00;;;;;;;22.48;65.31;101542.72;5054327;28;20017;-86
2023/06/22 09:49:02;;;;;;;4.87;3.50;;;;;;;22.45;66.13;101534.13;5054060;28;20040;-87
2023/06/22 09:51:27;;;;;;;4.00;2.93;;;;;;;22.44;66.19;101529.75;5053964;28;20021;-86
2023/06/22 09:53:55;;;;;;;2.90;2.60;;;;;;;22.46;67.00;101522.59;5053469;28;20028;-86
2023/06/22 09:56:20;;;;;;;3.47;2.75;;;;;;;22.46;66.55;101523.44;5053947;28;20032;-86
2023/06/22 09:58:47;;;;;;;4.53;3.33;;;;;;;22.45;66.39;101528.81;5053613;28;20025;-86
2023/06/22 10:01:14;;;;;;;4.15;2.95;;;;;;;22.45;66.59;101534.13;5053259;28;20033;-86
2023/06/22 10:03:40;;;;;;;2.80;2.53;;;;;;;22.45;66.56;101528.81;5053981;28;20099;-86
2023/06/22 10:06:06;;;;;;;4.95;3.55;;;;;;;22.43;65.59;101528.94;5052941;28;20086;-85
2023/06/22 10:08:32;;;;;;;11.03;6.23;;;;;;;22.37;65.28;101527.44;5051634;28;20120;-86
2023/06/22 10:10:57;;;;;;;8.23;4.60;;;;;;;22.41;66.78;101532.56;5053705;28;20454;-86
2023/06/22 10:13:22;;;;;;;4.90;3.23;;;;;;;22.40;66.45;101530.84;5052690;28;20409;-86
2023/06/22 10:15:51;;;;;;;4.20;3.10;;;;;;;22.41;66.91;101532.56;5053500;28;20028;-87
2023/06/22 10:18:17;;;;;;;4.43;3.28;;;;;;;22.40;66.57;101531.69;5053452;28;20029;-86
2023/06/22 10:20:42;;;;;;;2.70;2.50;;;;;;;22.39;66.68;101529.16;5052892;28;20468;-85
2023/06/22 10:23:07;;;;;;;3.13;2.37;;;;;;;22.42;67.56;101529.00;5052995;28;20039;-85
2023/06/22 10:25:33;;;;;;;2.57;2.30;;;;;;;22.46;66.68;101530.53;5053293;28;20028;-86
2023/06/22 10:27:58;;;;;;;2.27;2.07;;;;;;;22.43;67.15;101517.47;5052891;28;20115;-86
2023/06/22 10:30:23;;;;;;;2.50;2.30;;;;;;;22.50;66.76;101518.88;5053344;28;20068;-87
2023/06/22 10:32:49;;;;;;;5.40;3.90;;;;;;;22.54;66.25;101522.19;5052595;28;20057;-86
2023/06/22 10:35:15;;;;;;;4.00;3.10;;;;;;;22.53;66.95;101521.31;5052088;28;20091;-87
2023/06/22 10:37:43;;;;;;;2.97;2.67;;;;;;;22.49;66.86;101515.34;5053614;28;20044;-87
2023/06/22 10:40:08;;;;;;;2.58;2.30;;;;;;;22.58;67.44;101529.00;5052424;28;20029;-86
2023/06/22 10:42:34;;;;;;;2.50;2.30;;;;;;;22.62;67.39;101539.34;5052433;28;20029;-85
2023/06/22 10:44:59;;;;;;;1.93;1.83;;;;;;;22.56;67.58;101530.91;5052938;28;20094;-85
2023/06/22 10:47:24;;;;;;;1.97;1.87;;;;;;;22.63;67.71;101548.97;5052998;28;20056;-86
2023/06/22 10:49:50;;;;;;;4.30;3.10;;;;;;;22.62;67.81;101557.00;5052291;28;20017;-86
2023/06/22 10:52:15;;;;;;;2.97;2.30;;;;;;;22.60;68.89;101557.09;5052418;28;20432;-86
2023/06/22 10:54:40;;;;;;;3.60;2.87;;;;;;;22.59;68.23;101562.44;5052623;28;20029;-86
2023/06/22 10:57:06;;;;;;;2.30;2.10;;;;;;;22.55;68.08;101559.13;5052009;28;20025;-85
2023/06/22 10:59:31;;;;;;;4.60;3.57;;;;;;;22.55;70.00;101566.22;5053107;28;20029;-86
2023/06/22 11:01:58;;;;;;;3.63;2.93;;;;;;;22.48;69.80;101566.53;5051039;28;20052;-86
2023/06/22 11:04:23;;;;;;;3.13;2.60;;;;;;;22.44;70.50;101572.94;5051471;28;20031;-88
2023/06/22 11:06:49;;;;;;;2.60;2.20;;;;;;;22.37;70.58;101569.75;5053246;28;20104;-89
2023/06/22 11:09:20;;;;;;;2.60;2.40;;;;;;;22.38;70.71;101567.94;5053145;28;20373;-90
2023/06/22 11:11:45;;;;;;;2.58;2.38;;;;;;;22.31;71.31;101563.94;5052697;28;20021;-89
2023/06/22 11:14:11;;;;;;;4.13;2.20;;;;;;;22.27;73.15;101572.94;5052639;28;20029;-88
2023/06/22 11:16:36;;;;;;;2.38;2.17;;;;;;;22.19;72.98;101576.00;5051589;28;20028;-86
2023/06/22 11:19:03;;;;;;;2.47;2.27;;;;;;;22.16;73.71;101584.09;5052139;28;20147;-86
2023/06/22 11:21:28;;;;;;;2.30;2.10;;;;;;;22.09;74.07;101582.69;5052161;28;20024;-87
2023/06/22 11:23:53;;;;;;;2.30;2.10;;;;;;;22.05;75.08;101582.88;5051996;28;20025;-88